Time;durP1;ratioP1;P1;durP2;ratioP2;P2;SDS_P1;SDS_P2;PMS_P1;PMS_P2;Temp;Humidity;BMP_temperature;BMP_pressure;BME280_temperature;BME280_humidity;BME280_pressure;Samples;Min_cycle;Max_cycle;Signal;HPM_P1;HPM_P2
2023/03/25 00:04:03;;;;;;;5.53;1.20;;;;;;;8.47;100.00;100091.72;5033236;28;20528;-91
2023/03/25 00:28:59;;;;;;;5.03;0.82;;;;;;;8.17;100.00;100078.81;4975983;28;20049;-91
2023/03/25 00:35:30;;;;;;;4.65;0.82;;;;;;;8.25;100.00;100065.06;4936422;29;20398;-91
2023/03/25 00:38:09;;;;;;;;;;;;;;;;;;;;;
2023/03/25 00:41:00;;;;;;;7.22;1.13;;;;;;;8.26;99.70;100074.81;4974874;28;20035;-92
2023/03/25 01:47:00;;;;;;;6.40;1.17;;;;;;;7.67;100.00;100067.91;5014335;28;20034;-92
2023/03/25 01:57:03;;;;;;;4.03;1.20;;;;;;;7.70;100.00;100070.16;5012692;28;20037;-90
2023/03/25 02:03:55;;;;;;;6.65;1.27;;;;;;;7.71;100.00;100067.25;5014117;28;20061;-92
2023/03/25 02:20:58;;;;;;;5.82;1.02;;;;;;;7.22;100.00;100052.53;4973854;28;20074;-91
2023/03/25 02:58:20;;;;;;;9.25;1.15;;;;;;;6.93;100.00;100051.16;5048049;28;20063;-91
2023/03/25 03:05:43;;;;;;;8.00;1.60;;;;;;;6.81;100.00;100061.75;4995717;28;20130;-91
2023/03/25 03:18:52;;;;;;;4.95;0.93;;;;;;;6.60;100.00;100025.06;4995567;28;20117;-90
2023/03/25 03:31:55;;;;;;;;;;;;;;;;;;;;;
2023/03/25 03:37:36;;;;;;;10.48;1.25;;;;;;;6.60;100.00;100025.91;4956401;28;20101;-90
2023/03/25 03:50:26;;;;;;;8.63;1.25;;;;;;;6.63;100.00;100033.56;4880684;29;20112;-90
2023/03/25 03:57:07;;;;;;;11.13;1.50;;;;;;;6.46;100.00;100040.41;4882146;29;20089;-90
2023/03/25 03:59:46;;;;;;;11.32;1.45;;;;;;;6.46;100.00;100043.94;4879526;29;20088;-90
2023/03/25 04:05:52;;;;;;;11.50;1.50;;;;;;;6.56;100.00;100045.41;4850915;29;20073;-90
2023/03/25 04:08:28;;;;;;;8.80;1.67;;;;;;;6.50;100.00;100036.28;4871409;29;20064;-90
2023/03/25 04:21:14;;;;;;;4.50;1.02;;;;;;;6.66;100.00;100043.94;4945629;29;20050;-90
2023/03/25 04:27:03;;;;;;;7.30;0.82;;;;;;;6.75;100.00;100043.72;4955387;29;20041;-90
2023/03/25 04:30:08;;;;;;;5.70;1.15;;;;;;;6.80;100.00;100046.59;4944421;28;20049;-89
2023/03/25 04:32:34;;;;;;;10.98;0.80;;;;;;;6.75;100.00;100028.38;4978522;28;20030;-90
2023/03/25 04:35:02;;;;;;;8.73;1.13;;;;;;;6.84;100.00;100027.09;4994665;28;20031;-90
2023/03/25 04:37:28;;;;;;;5.30;0.80;;;;;;;6.83;100.00;100036.22;4978229;28;20038;-90
2023/03/25 04:40:15;;;;;;;5.90;1.10;;;;;;;6.87;100.00;100025.03;4995937;28;20030;-90
2023/03/25 04:42:41;;;;;;;5.38;1.35;;;;;;;6.97;100.00;100047.00;4964794;28;20092;-90
2023/03/25 04:45:15;;;;;;;6.38;0.80;;;;;;;6.96;100.00;100051.53;4977967;28;20089;-90
2023/03/25 04:48:13;;;;;;;3.15;0.55;;;;;;;6.90;100.00;100073.16;4938076;28;20042;-90
2023/03/25 04:50:42;;;;;;;5.15;0.90;;;;;;;6.93;100.00;100043.06;4978560;28;20510;-90
2023/03/25 04:53:08;;;;;;;6.07;0.82;;;;;;;6.85;100.00;100031.47;4995226;28;20026;-90
2023/03/25 04:55:36;;;;;;;7.28;1.25;;;;;;;6.93;100.00;100027.69;4977570;28;20088;-90
2023/03/25 04:58:06;;;;;;;5.20;0.75;;;;;;;6.94;100.00;100023.97;4995160;28;20031;-90
2023/03/25 05:00:36;;;;;;;6.53;1.00;;;;;;;7.02;100.00;100039.91;4995218;28;20105;-90
2023/03/25 05:10:08;;;;;;;8.57;1.13;;;;;;;6.91;100.00;100028.94;5014901;28;20080;-89
2023/03/25 05:37:16;;;;;;;8.77;1.20;;;;;;;6.36;100.00;100073.16;5013280;28;20030;-90
2023/03/25 05:57:31;;;;;;;8.50;1.08;;;;;;;6.47;100.00;100072.56;5013255;28;20100;-89
2023/03/25 06:01:08;;;;;;;11.70;1.23;;;;;;;6.52;100.00;100073.81;4972848;28;20482;-89
2023/03/25 06:07:36;;;;;;;11.63;1.45;;;;;;;6.42;100.00;100080.44;5011420;28;20060;-89
2023/03/25 06:13:37;;;;;;;9.52;1.73;;;;;;;6.56;100.00;100102.81;5013955;28;20064;-90
2023/03/25 06:30:28;;;;;;;;;;;;;;;;;;;;;
2023/03/25 06:33:01;;;;;;;10.88;1.00;;;;;;;6.57;100.00;100079.38;4953897;29;20035;-89
2023/03/25 06:35:34;;;;;;;10.20;1.10;;;;;;;6.62;100.00;100077.72;4923188;28;20035;-89
2023/03/25 06:42:16;;;;;;;8.50;1.02;;;;;;;6.84;100.00;100091.00;5013680;28;20061;-90
2023/03/25 06:58:34;;;;;;;12.25;1.63;;;;;;;7.81;100.00;100125.38;5012240;28;20061;-90
2023/03/25 07:01:05;;;;;;;9.48;1.33;;;;;;;7.80;100.00;100110.22;4980338;28;20130;-90
2023/03/25 07:03:37;;;;;;;13.15;1.85;;;;;;;7.96;100.00;100108.88;5013445;28;20034;-90
2023/03/25 07:06:15;;;;;;;14.45;1.50;;;;;;;7.98;100.00;100140.03;5006107;28;20053;-89
2023/03/25 07:09:14;;;;;;;;;;;;;;;;;;;;;
2023/03/25 07:11:49;;;;;;;14.05;1.88;;;;;;;7.76;100.00;100123.31;4989330;28;20497;-91
2023/03/25 07:14:15;;;;;;;9.13;1.17;;;;;;;7.78;100.00;100150.94;4981344;28;20030;-93
2023/03/25 07:16:45;;;;;;;8.50;1.55;;;;;;;7.88;100.00;100132.41;4980101;28;20038;-92
2023/03/25 07:19:35;;;;;;;;;;;;;;;;;;;;;
2023/03/25 07:25:27;;;;;;;9.10;1.85;;;;;;;7.36;100.00;100101.88;4868712;29;20128;-92
2023/03/25 07:32:02;;;;;;;10.07;1.50;;;;;;;6.91;100.00;100126.03;4861656;29;20076;-92
2023/03/25 07:38:38;;;;;;;;;;;;;;;;;;;;;
2023/03/25 07:41:11;;;;;;;16.55;1.77;;;;;;;6.68;100.00;100125.41;4991720;28;20041;-92
2023/03/25 07:43:45;;;;;;;16.55;2.15;;;;;;;6.68;100.00;100124.59;4979641;28;20036;-91
2023/03/25 07:46:32;;;;;;;12.43;1.63;;;;;;;6.69;100.00;100131.66;4943349;29;20071;-91
2023/03/25 07:49:34;;;;;;;14.33;1.43;;;;;;;6.67;100.00;100139.09;4939801;29;20082;-91
2023/03/25 07:52:05;;;;;;;11.35;1.88;;;;;;;6.64;100.00;100140.38;4939670;29;20031;-91
2023/03/25 07:57:59;;;;;;;15.40;1.70;;;;;;;6.66;100.00;100130.19;4941697;28;20048;-91
2023/03/25 08:00:28;;;;;;;16.23;2.28;;;;;;;6.66;100.00;100124.81;4956390;29;20081;-91
2023/03/25 08:03:04;;;;;;;;;;;;;;;;;;;;;
2023/03/25 08:05:32;;;;;;;10.82;1.95;;;;;;;6.84;100.00;100134.97;4997374;28;20358;-90
2023/03/25 08:11:53;;;;;;;12.82;1.90;;;;;;;7.22;100.00;100148.81;4958185;28;20059;-92
2023/03/25 08:14:18;;;;;;;17.33;1.80;;;;;;;7.44;100.00;100152.94;4955374;29;20047;-90
2023/03/25 08:17:07;;;;;;;12.03;1.87;;;;;;;7.60;100.00;100162.41;4939267;29;20559;-90
2023/03/25 08:19:32;;;;;;;16.17;2.05;;;;;;;7.68;100.00;100139.78;4939784;29;20050;-90
2023/03/25 08:22:10;;;;;;;10.70;1.80;;;;;;;7.58;100.00;100142.91;4954445;28;20480;-90
2023/03/25 08:32:16;;;;;;;14.77;1.80;;;;;;;7.49;100.00;100173.88;4975580;28;20041;-90
2023/03/25 08:34:46;;;;;;;21.15;2.30;;;;;;;7.27;100.00;100176.81;4969893;28;20085;-89
2023/03/25 08:37:15;;;;;;;19.48;1.90;;;;;;;7.09;100.00;100174.78;4958882;28;20467;-89
2023/03/25 08:39:43;;;;;;;18.17;2.42;;;;;;;6.96;100.00;100169.41;4957791;28;20035;-87
2023/03/25 08:42:17;;;;;;;15.73;2.17;;;;;;;6.92;100.00;100174.34;4956602;28;20061;-87
2023/03/25 08:45:25;;;;;;;19.52;2.10;;;;;;;7.10;100.00;100186.38;4955489;28;20078;-87
2023/03/25 08:51:44;;;;;;;16.15;2.25;;;;;;;7.32;100.00;100189.69;4961025;28;20093;-87
2023/03/25 08:58:12;;;;;;;;;;;;;;;;;;;;;
2023/03/25 09:01:28;;;;;;;25.48;2.88;;;;;;;7.54;100.00;100190.25;4919125;29;20054;-95
2023/03/25 09:04:03;;;;;;;20.17;1.83;;;;;;;7.32;100.00;100168.09;4922865;28;20040;-95
2023/03/25 09:07:30;;;;;;;16.50;2.38;;;;;;;7.43;100.00;100172.03;4985100;28;20050;-91
2023/03/25 09:10:11;;;;;;;13.57;2.05;;;;;;;7.54;100.00;100184.88;4964844;28;20034;-92
2023/03/25 09:13:03;;;;;;;;;;;;;;;;;;;;;
2023/03/25 09:15:40;;;;;;;26.75;2.97;;;;;;;7.85;100.00;100170.66;4966262;28;20038;-92
2023/03/25 09:18:20;;;;;;;20.73;3.00;;;;;;;8.00;100.00;100180.34;4976687;28;20046;-93
2023/03/25 09:21:02;;;;;;;28.00;2.80;;;;;;;8.02;100.00;100172.88;4977039;28;20128;-94
2023/03/25 09:23:37;;;;;;;14.35;2.63;;;;;;;8.07;100.00;100167.63;4977287;28;20097;-94
2023/03/25 09:26:34;;;;;;;20.38;2.88;;;;;;;8.20;100.00;100186.47;4981436;28;20052;-93
2023/03/25 09:32:10;;;;;;;;;;;;;;;;;;;;;
2023/03/25 09:34:57;;;;;;;16.45;2.75;;;;;;;8.58;100.00;100176.75;4998767;28;20033;-92
2023/03/25 09:37:55;;;;;;;19.80;2.75;;;;;;;8.63;100.00;100179.59;5013733;28;20092;-92
2023/03/25 09:40:41;;;;;;;;;;;;;;;;;;;;;
2023/03/25 09:43:22;;;;;;;22.83;2.72;;;;;;;9.09;100.00;100194.66;5013367;28;20044;-92
2023/03/25 09:46:09;;;;;;;18.17;2.15;;;;;;;9.28;100.00;100173.03;4995543;28;20049;-91
2023/03/25 09:48:55;;;;;;;12.32;2.65;;;;;;;9.41;100.00;100182.91;5013618;28;20116;-93
2023/03/25 09:51:35;;;;;;;13.98;2.28;;;;;;;9.25;100.00;100197.84;5012264;28;20042;-94
2023/03/25 09:54:43;;;;;;;16.70;2.58;;;;;;;9.26;100.00;100188.66;4980990;28;20061;-94
2023/03/25 09:57:21;;;;;;;20.15;3.30;;;;;;;9.42;100.00;100211.63;4996597;28;20096;-93
2023/03/25 09:59:58;;;;;;;12.40;2.50;;;;;;;9.65;100.00;100182.03;4995062;28;20113;-93
2023/03/25 10:02:56;;;;;;;12.88;2.30;;;;;;;9.72;100.00;100194.66;5013231;28;20026;-92
2023/03/25 10:05:55;;;;;;;17.27;3.03;;;;;;;9.97;100.00;100181.03;4998347;28;20034;-92
2023/03/25 10:08:46;;;;;;;17.25;2.78;;;;;;;9.74;100.00;100187.13;4981708;28;20441;-92
2023/03/25 10:11:38;;;;;;;24.48;2.92;;;;;;;9.83;99.32;100193.88;4976938;28;20121;-91
2023/03/25 10:14:26;;;;;;;14.98;2.22;;;;;;;10.19;98.02;100198.44;4973719;28;20483;-91
2023/03/25 10:17:37;;;;;;;16.27;2.90;;;;;;;10.40;98.04;100163.78;4957330;28;20035;-91
2023/03/25 10:20:38;;;;;;;;;;;;;;;;;;;;;
2023/03/25 10:23:23;;;;;;;;;;;;;;;;;;;;;
2023/03/25 10:29:46;;;;;;;;;;;;;;;;;;;;;
2023/03/25 10:32:54;;;;;;;;;;;;;;;;;;;;;
2023/03/25 10:35:51;;;;;;;13.05;2.88;;;;;;;10.70;89.16;100230.72;4974763;28;20378;-92
2023/03/25 10:41:34;;;;;;;13.65;2.58;;;;;;;11.02;85.99;100189.75;4974109;28;20051;-92
2023/03/25 10:44:30;;;;;;;;;;;;;;;;;;;;;
2023/03/25 10:47:56;;;;;;;13.93;2.60;;;;;;;11.58;80.28;100193.75;4978522;28;20045;-92
2023/03/25 10:50:33;;;;;;;14.30;2.45;;;;;;;11.81;78.50;100189.38;4978143;28;20055;-92
2023/03/25 10:53:13;;;;;;;16.08;2.70;;;;;;;11.98;77.24;100192.19;4962184;28;20469;-92
2023/03/25 10:55:57;;;;;;;;;;;;;;;;;;;;;
2023/03/25 10:58:32;;;;;;;10.60;2.40;;;;;;;12.35;73.18;100204.59;4979301;28;20440;-92
2023/03/25 11:01:26;;;;;;;14.82;2.00;;;;;;;12.58;69.25;100188.16;4976543;28;20437;-91
2023/03/25 11:04:02;;;;;;;8.88;1.27;;;;;;;12.72;67.64;100177.78;4960785;28;20097;-92
2023/03/25 11:07:10;;;;;;;;;;;;;;;;;;;;;
2023/03/25 11:15:58;;;;;;;8.17;1.20;;;;;;;12.26;66.16;100207.69;4978552;28;20479;-91
2023/03/25 11:19:15;;;;;;;9.25;1.50;;;;;;;12.66;65.19;100208.69;4976905;28;20039;-92
2023/03/25 11:22:22;;;;;;;8.10;1.10;;;;;;;12.62;64.51;100221.13;4912961;28;20043;-92
2023/03/25 11:25:31;;;;;;;10.77;1.40;;;;;;;12.67;64.92;100226.69;4972187;28;20034;-92
2023/03/25 11:28:41;;;;;;;8.98;1.17;;;;;;;12.93;62.63;100214.34;4966424;28;20035;-92
2023/03/25 11:31:24;;;;;;;9.95;1.08;;;;;;;12.88;64.19;100241.47;4975476;28;20093;-92
2023/03/25 11:34:30;;;;;;;7.82;1.27;;;;;;;12.90;63.75;100201.25;4960470;28;20023;-92
2023/03/25 11:37:36;;;;;;;11.23;1.63;;;;;;;13.57;62.35;100188.66;4976416;28;20085;-92
2023/03/25 11:40:17;;;;;;;12.88;1.90;;;;;;;13.20;62.14;100208.25;4938166;28;20045;-93
2023/03/25 11:43:11;;;;;;;;;;;;;;;;;;;;;
2023/03/25 11:45:52;;;;;;;11.50;1.73;;;;;;;12.43;63.50;100204.19;4978391;28;20022;-92
2023/03/25 11:48:40;;;;;;;;;;;;;;;;;;;;;
2023/03/25 11:51:41;;;;;;;;;;;;;;;;;;;;;
2023/03/25 11:54:29;;;;;;;;;;;;;;;;;;;;;
2023/03/25 11:57:47;;;;;;;;;;;;;;;;;;;;;
2023/03/25 12:00:39;;;;;;;12.33;1.90;;;;;;;11.86;73.57;100203.03;4942588;28;20039;-93
2023/03/25 12:03:45;;;;;;;;;;;;;;;;;;;;;
2023/03/25 12:06:17;;;;;;;7.32;1.83;;;;;;;10.88;84.90;100225.25;4981832;28;20062;-92
2023/03/25 12:08:50;;;;;;;12.25;1.80;;;;;;;11.53;79.85;100206.38;4976128;28;20039;-92
2023/03/25 12:12:13;;;;;;;;;;;;;;;;;;;;;
2023/03/25 12:15:20;;;;;;;;;;;;;;;;;;;;;
2023/03/25 12:18:28;;;;;;;;;;;;;;;;;;;;;
2023/03/25 12:21:48;;;;;;;20.55;3.20;;;;;;;10.63;100.00;100243.56;4996636;28;20026;-92
2023/03/25 12:31:39;;;;;;;13.07;1.60;;;;;;;12.99;85.42;100204.34;4992351;28;20053;-93
2023/03/25 12:38:00;;;;;;;5.97;1.08;;;;;;;12.84;84.52;100217.72;4984042;28;20489;-92
2023/03/25 12:41:17;;;;;;;;;;;;;;;;;;;;;
2023/03/25 12:44:28;;;;;;;6.80;1.30;;;;;;;12.20;77.76;100213.28;4995917;28;20030;-93
2023/03/25 12:47:24;;;;;;;12.47;1.87;;;;;;;10.83;86.97;100232.44;4929894;29;20044;-93
2023/03/25 12:50:58;;;;;;;;;;;;;;;;;;;;;
2023/03/25 12:53:57;;;;;;;10.75;1.80;;;;;;;9.27;100.00;100212.81;4936114;29;20038;-92
2023/03/25 12:57:00;;;;;;;;;;;;;;;;;;;;;
2023/03/25 12:59:58;;;;;;;15.15;1.77;;;;;;;8.83;100.00;100255.22;4947134;28;20538;-90
2023/03/25 13:02:34;;;;;;;14.10;2.47;;;;;;;10.84;100.00;100244.94;4997368;28;20022;-90
2023/03/25 13:05:18;;;;;;;15.30;2.20;;;;;;;12.62;100.00;100234.75;4996755;28;20120;-89
2023/03/25 13:08:33;;;;;;;;;;;;;;;;;;;;;
2023/03/25 13:11:56;;;;;;;;;;;;;;;;;;;;;
2023/03/25 13:15:10;;;;;;;8.13;1.48;;;;;;;17.84;69.21;100223.03;4935631;29;20050;-90
2023/03/25 13:17:44;;;;;;;11.57;1.80;;;;;;;16.46;64.16;100230.97;4918137;29;20047;-90
2023/03/25 13:20:23;;;;;;;;;;;;;;;;;;;;;
2023/03/25 13:23:04;;;;;;;;;;;;;;;;;;;;;
2023/03/25 13:53:08;;;;;;;8.95;1.48;;;;;;;14.93;74.38;100241.81;4972714;28;20045;-91
2023/03/25 14:06:42;;;;;;;11.87;1.93;;;;;;;13.28;74.89;100258.75;5014670;28;20064;-91
2023/03/25 14:37:10;;;;;;;8.07;1.63;;;;;;;18.67;50.22;100254.50;5017045;28;20532;-92
2023/03/25 14:44:15;;;;;;;12.10;1.80;;;;;;;14.65;60.95;100269.09;5017606;28;20044;-92
2023/03/25 14:46:55;;;;;;;;;;;;;;;;;;;;;
2023/03/25 14:50:02;;;;;;;13.80;1.98;;;;;;;13.83;63.96;100281.69;4957104;28;20028;-90
2023/03/25 14:55:59;;;;;;;10.88;1.90;;;;;;;13.60;64.81;100277.28;4956311;29;20036;-89
2023/03/25 14:58:31;;;;;;;13.63;1.97;;;;;;;13.70;64.65;100282.88;4940633;29;20035;-91
2023/03/25 15:31:59;;;;;;;;;;;;;;;;;;;;;
2023/03/25 15:42:01;;;;;;;7.88;1.50;;;;;;;12.58;64.15;100323.41;5015418;28;20030;-93
2023/03/25 15:44:41;;;;;;;11.27;1.50;;;;;;;12.47;63.46;100276.09;5016151;28;20036;-91
2023/03/25 15:47:48;;;;;;;7.88;1.60;;;;;;;12.39;62.49;100284.66;4998109;28;20038;-90
2023/03/25 15:50:34;;;;;;;10.37;1.50;;;;;;;12.53;62.90;100288.72;5011191;28;20046;-91
2023/03/25 15:53:21;;;;;;;7.45;1.30;;;;;;;12.68;62.18;100301.84;5016020;28;20026;-91
2023/03/25 15:56:15;;;;;;;8.43;1.30;;;;;;;12.61;61.59;100301.16;4998774;28;20037;-91
2023/03/25 15:58:56;;;;;;;8.30;1.40;;;;;;;12.31;62.18;100290.47;4983687;28;20088;-91
2023/03/25 16:05:09;;;;;;;9.65;1.33;;;;;;;12.13;64.81;100305.06;5007683;28;20038;-91
2023/03/25 16:08:01;;;;;;;8.15;1.40;;;;;;;11.96;65.83;100303.06;4997882;28;20042;-91
2023/03/25 16:11:00;;;;;;;9.30;1.50;;;;;;;11.97;66.47;100325.63;4998139;28;20030;-91
2023/03/25 16:13:59;;;;;;;7.28;1.30;;;;;;;11.98;65.57;100316.41;4996735;28;20108;-91
2023/03/25 16:16:34;;;;;;;;;;;;;;;;;;;;;
2023/03/25 16:19:10;;;;;;;6.73;1.57;;;;;;;11.81;66.87;100352.44;5016541;28;20331;-92
2023/03/25 16:21:45;;;;;;;6.68;1.00;;;;;;;11.80;67.63;100318.16;4998284;28;20030;-91
2023/03/25 16:24:32;;;;;;;8.23;1.60;;;;;;;11.87;68.04;100321.59;4998217;28;20026;-91
2023/03/25 16:27:11;;;;;;;11.00;1.80;;;;;;;11.91;68.29;100328.22;4998335;28;20466;-91
2023/03/25 16:29:56;;;;;;;;;;;;;;;;;;;;;
2023/03/25 16:32:36;;;;;;;11.90;2.03;;;;;;;11.99;68.43;100353.41;5015254;28;20056;-92
2023/03/25 16:35:06;;;;;;;10.45;1.98;;;;;;;12.04;68.98;100339.94;4998123;28;20033;-90
2023/03/25 16:37:42;;;;;;;8.85;2.13;;;;;;;12.07;69.42;100347.63;5015667;28;20044;-91
2023/03/25 16:40:24;;;;;;;13.77;2.45;;;;;;;11.96;69.61;100381.06;4999119;28;20037;-91
2023/03/25 16:46:07;;;;;;;10.10;2.15;;;;;;;11.74;71.60;100366.13;5008778;28;20041;-91
2023/03/25 16:48:39;;;;;;;10.77;2.15;;;;;;;11.65;72.35;100356.69;4997905;28;20113;-91
2023/03/25 16:51:10;;;;;;;15.65;1.95;;;;;;;11.67;73.23;100361.88;4997968;28;20034;-91
2023/03/25 16:54:04;;;;;;;;;;;;;;;;;;;;;
2023/03/25 16:56:49;;;;;;;10.85;2.03;;;;;;;11.61;73.94;100365.53;5000921;28;20081;-91
2023/03/25 16:59:30;;;;;;;10.33;1.70;;;;;;;11.56;74.22;100360.81;4997668;28;20445;-91
2023/03/25 17:02:16;;;;;;;;;;;;;;;;;;;;;
2023/03/25 17:04:44;;;;;;;10.27;2.17;;;;;;;11.39;75.50;100356.03;5015883;28;20038;-90
2023/03/25 17:07:42;;;;;;;13.00;1.77;;;;;;;11.41;76.17;100370.22;4982267;28;20145;-90
2023/03/25 17:10:24;;;;;;;8.82;2.00;;;;;;;11.39;76.68;100372.31;5015310;28;20031;-90
2023/03/25 17:13:42;;;;;;;13.43;1.90;;;;;;;11.29;76.54;100360.38;4973771;28;20027;-90
2023/03/25 17:16:08;;;;;;;12.05;1.67;;;;;;;11.28;76.76;100365.00;5015081;28;20038;-90
2023/03/25 17:22:53;;;;;;;;;;;;;;;;;;;;;
2023/03/25 17:25:50;;;;;;;13.18;2.28;;;;;;;11.11;77.24;100397.38;4956273;28;20028;-90
2023/03/25 17:28:39;;;;;;;12.57;1.85;;;;;;;11.10;77.95;100378.63;4977592;28;20078;-91
2023/03/25 17:31:33;;;;;;;11.88;1.80;;;;;;;11.06;78.70;100394.56;4994818;28;20030;-89
2023/03/25 17:34:41;;;;;;;12.63;2.00;;;;;;;11.05;78.91;100390.16;4931947;28;20044;-91
2023/03/25 17:41:11;;;;;;;15.70;2.85;;;;;;;10.96;79.17;100403.22;4934421;29;20046;-90
2023/03/25 17:44:01;;;;;;;12.63;1.85;;;;;;;10.97;80.00;100398.63;4897219;29;20036;-90
2023/03/25 17:46:45;;;;;;;20.40;2.88;;;;;;;10.92;80.40;100412.06;4881411;29;20032;-89
2023/03/25 17:49:51;;;;;;;16.40;2.10;;;;;;;10.85;80.55;100404.84;4956968;28;20035;-90
2023/03/25 17:55:46;;;;;;;16.00;2.22;;;;;;;10.85;80.94;100429.25;4992550;28;20096;-91
2023/03/25 18:01:44;;;;;;;17.88;1.98;;;;;;;10.77;80.97;100421.41;4992254;28;20073;-91
2023/03/25 18:04:20;;;;;;;15.73;2.20;;;;;;;10.75;81.06;100425.41;4991988;28;20042;-91
2023/03/25 18:07:13;;;;;;;11.68;1.80;;;;;;;10.69;82.44;100441.56;4977048;28;20117;-90
2023/03/25 18:09:59;;;;;;;;;;;;;;;;;;;;;
2023/03/25 18:19:09;;;;;;;17.60;2.20;;;;;;;10.52;81.61;100445.91;4934214;29;20039;-90
2023/03/25 18:29:09;;;;;;;10.32;2.00;;;;;;;10.42;82.15;100459.97;4901940;28;20039;-90
2023/03/25 18:32:10;;;;;;;12.98;2.05;;;;;;;10.31;82.17;100431.69;4919264;29;20031;-94
2023/03/25 18:34:52;;;;;;;12.55;2.03;;;;;;;10.32;82.39;100455.06;4884225;29;20147;-91
2023/03/25 18:37:23;;;;;;;16.00;3.03;;;;;;;10.35;82.41;100445.69;4917821;29;20071;-91
2023/03/25 18:39:58;;;;;;;16.13;2.15;;;;;;;10.30;82.89;100434.63;4933939;29;20054;-91
2023/03/25 18:43:04;;;;;;;13.43;1.87;;;;;;;10.22;83.34;100443.06;4918009;29;20078;-90
2023/03/25 18:45:45;;;;;;;16.73;2.92;;;;;;;10.13;84.34;100458.78;4918341;29;20036;-91
2023/03/25 18:48:20;;;;;;;20.73;2.40;;;;;;;10.08;84.60;100447.75;4927250;28;20043;-91
2023/03/25 18:50:58;;;;;;;17.80;2.25;;;;;;;9.94;85.36;100430.78;4974362;28;20023;-91
2023/03/25 18:53:34;;;;;;;18.48;2.78;;;;;;;9.84;86.22;100442.13;4959260;28;20035;-91
2023/03/25 18:56:19;;;;;;;;;;;;;;;;;;;;;
2023/03/25 18:58:47;;;;;;;16.08;2.72;;;;;;;9.75;87.34;100457.00;4993846;28;20038;-90
2023/03/25 19:01:34;;;;;;;;;;;;;;;;;;;;;
2023/03/25 19:04:01;;;;;;;18.27;3.03;;;;;;;9.57;88.95;100463.16;4993807;28;20038;-91
2023/03/25 19:06:43;;;;;;;;;;;;;;;;;;;;;
2023/03/25 19:09:30;;;;;;;13.93;2.30;;;;;;;9.43;89.91;100484.06;4997191;28;20042;-90
2023/03/25 19:12:14;;;;;;;19.08;3.08;;;;;;;9.43;89.87;100479.50;4980523;28;20030;-91
2023/03/25 19:15:30;;;;;;;20.48;3.33;;;;;;;9.47;90.30;100496.94;4980213;28;20038;-90
2023/03/25 19:18:26;;;;;;;13.82;2.50;;;;;;;9.41;89.80;100486.16;4975560;28;20038;-91
2023/03/25 19:21:08;;;;;;;21.73;2.58;;;;;;;9.37;90.53;100476.81;4979740;28;20046;-91
2023/03/25 19:23:40;;;;;;;16.30;2.42;;;;;;;9.35;90.81;100478.91;4996929;28;20023;-90
2023/03/25 19:26:21;;;;;;;15.57;2.85;;;;;;;9.34;91.22;100501.59;4979519;28;20035;-90
2023/03/25 19:28:51;;;;;;;24.50;2.58;;;;;;;9.33;91.51;100494.53;4997294;28;20113;-90
2023/03/25 19:31:42;;;;;;;14.32;2.30;;;;;;;9.29;92.04;100508.50;4979155;28;20182;-91
2023/03/25 19:34:20;;;;;;;23.75;3.35;;;;;;;9.18;92.40;100473.16;4979490;28;20097;-90
2023/03/25 19:37:01;;;;;;;;;;;;;;;;;;;;;
2023/03/25 19:39:43;;;;;;;25.42;4.18;;;;;;;9.24;92.90;100473.13;4981196;28;20030;-92
2023/03/25 19:42:12;;;;;;;17.10;2.50;;;;;;;9.26;92.68;100487.28;4964064;28;20072;-91
2023/03/25 19:44:42;;;;;;;16.27;2.70;;;;;;;9.16;93.65;100488.78;4972673;28;20038;-92
2023/03/25 19:47:10;;;;;;;24.67;3.22;;;;;;;9.08;94.48;100496.09;5013486;28;20038;-92
2023/03/25 19:49:48;;;;;;;19.45;3.38;;;;;;;9.15;94.30;100500.66;4992144;28;20038;-91
2023/03/25 19:52:19;;;;;;;23.85;3.08;;;;;;;9.15;95.30;100511.47;4999130;28;20038;-91
2023/03/25 19:54:57;;;;;;;24.63;3.25;;;;;;;9.05;96.81;100509.22;4963094;28;20117;-91
2023/03/25 19:57:36;;;;;;;20.92;3.00;;;;;;;8.98;99.28;100521.97;4995953;28;20034;-90
2023/03/25 20:00:28;;;;;;;16.40;2.88;;;;;;;8.69;100.00;100511.38;4998511;28;20041;-90
2023/03/25 20:03:02;;;;;;;23.65;3.50;;;;;;;8.44;100.00;100524.75;4998386;28;20030;-93
2023/03/25 20:05:35;;;;;;;25.95;3.53;;;;;;;8.32;100.00;100532.63;4998371;28;20036;-90
2023/03/25 20:08:13;;;;;;;20.38;2.85;;;;;;;8.18;100.00;100515.56;4998252;28;20096;-89
2023/03/25 20:10:41;;;;;;;17.70;2.22;;;;;;;8.15;100.00;100532.22;4998560;28;20037;-90
2023/03/25 20:13:21;;;;;;;;;;;;;;;;;;;;;
2023/03/25 20:16:31;;;;;;;12.65;1.50;;;;;;;7.96;100.00;100516.78;4980010;28;20059;-91
2023/03/25 20:19:32;;;;;;;16.50;2.47;;;;;;;7.89;100.00;100533.81;4998767;28;20511;-91
2023/03/25 20:22:03;;;;;;;12.50;1.77;;;;;;;7.74;100.00;100522.38;4997961;28;20470;-91
2023/03/25 20:31:34;;;;;;;21.20;3.08;;;;;;;7.67;100.00;100535.03;4936120;29;20047;-90
2023/03/25 20:37:26;;;;;;;34.80;3.92;;;;;;;7.62;100.00;100564.50;4865786;29;20450;-93
2023/03/25 20:39:54;;;;;;;31.45;3.78;;;;;;;7.62;100.00;100554.56;4901468;29;20040;-92
2023/03/25 20:42:34;;;;;;;25.55;3.83;;;;;;;7.54;100.00;100550.19;4955772;28;20553;-93
2023/03/25 20:45:31;;;;;;;;;;;;;;;;;;;;;
2023/03/25 20:48:44;;;;;;;16.90;2.67;;;;;;;7.15;100.00;100550.84;4996155;28;20032;-91
2023/03/25 20:51:20;;;;;;;6.10;1.25;;;;;;;6.95;100.00;100554.28;4983657;28;20442;-91
2023/03/25 20:54:09;;;;;;;5.93;0.95;;;;;;;6.73;100.00;100536.47;4980626;28;20043;-92
2023/03/25 20:56:45;;;;;;;3.55;0.50;;;;;;;6.56;100.00;100538.66;4980661;28;20041;-91
2023/03/25 20:59:23;;;;;;;;;;;;;;;;;;;;;
2023/03/25 21:01:59;;;;;;;3.13;0.70;;;;;;;6.42;100.00;100543.97;4995281;28;20459;-92
2023/03/25 21:04:34;;;;;;;7.40;0.95;;;;;;;6.39;100.00;100540.81;4994215;28;20057;-92
2023/03/25 21:07:36;;;;;;;;;;;;;;;;;;;;;
2023/03/25 21:10:22;;;;;;;11.57;1.85;;;;;;;6.37;100.00;100549.09;4983469;28;20046;-91
2023/03/25 21:13:09;;;;;;;9.80;1.98;;;;;;;6.32;100.00;100551.53;4994483;28;20022;-91
2023/03/25 21:15:41;;;;;;;16.10;2.10;;;;;;;6.29;100.00;100557.31;4992529;28;20034;-91
2023/03/25 21:18:23;;;;;;;;;;;;;;;;;;;;;
2023/03/25 21:20:59;;;;;;;10.55;2.10;;;;;;;6.26;100.00;100561.22;4995024;28;20029;-93
2023/03/25 21:23:30;;;;;;;19.35;2.83;;;;;;;6.26;100.00;100555.84;4977896;28;20092;-92
2023/03/25 21:26:10;;;;;;;;;;;;;;;;;;;;;
2023/03/25 21:28:52;;;;;;;;;;;;;;;;;;;;;
2023/03/25 21:31:23;;;;;;;14.85;2.15;;;;;;;6.24;100.00;100575.91;4995366;28;20031;-93
2023/03/25 21:34:09;;;;;;;13.23;2.60;;;;;;;6.25;100.00;100575.72;5006062;28;20053;-93
2023/03/25 21:37:20;;;;;;;22.92;3.17;;;;;;;6.21;100.00;100577.13;4983426;28;20140;-93
2023/03/25 21:40:08;;;;;;;23.15;2.55;;;;;;;6.25;100.00;100569.50;4991957;28;20034;-96
2023/03/25 21:42:44;;;;;;;26.23;2.78;;;;;;;6.30;100.00;100581.38;4997707;28;20025;-93
2023/03/25 21:49:12;;;;;;;;;;;;;;;;;;;;;
2023/03/25 21:51:55;;;;;;;18.30;3.03;;;;;;;6.35;100.00;100586.19;5015733;28;20042;-94
2023/03/25 21:54:50;;;;;;;20.25;2.38;;;;;;;6.35;100.00;100574.56;4971306;28;20034;-93
2023/03/25 21:57:46;;;;;;;;;;;;;;;;;;;;;
2023/03/25 22:00:44;;;;;;;27.90;3.67;;;;;;;6.46;100.00;100574.03;5001595;28;20038;-93
2023/03/25 22:03:28;;;;;;;26.45;3.40;;;;;;;6.50;100.00;100572.63;4996995;28;20104;-93
2023/03/25 22:06:04;;;;;;;24.77;4.30;;;;;;;6.60;100.00;100581.19;4997783;28;20097;-93
2023/03/25 22:08:47;;;;;;;36.78;4.50;;;;;;;6.61;100.00;100573.94;4998153;28;20026;-92
2023/03/25 22:11:23;;;;;;;30.90;3.88;;;;;;;6.78;100.00;100578.00;4983080;28;20044;-93
2023/03/25 22:14:04;;;;;;;32.03;5.00;;;;;;;6.85;100.00;100578.06;4998686;28;20434;-93
2023/03/25 22:17:20;;;;;;;;;;;;;;;;;;;;;
2023/03/25 22:19:46;;;;;;;35.13;4.72;;;;;;;6.91;100.00;100584.50;5003712;28;20068;-94
2023/03/25 22:39:24;;;;;;;42.30;7.00;;;;;;;7.09;100.00;100589.41;4898751;29;20052;-93
2023/03/25 22:42:04;;;;;;;;;;;;;;;;;;;;;
2023/03/25 22:47:55;;;;;;;32.85;5.97;;;;;;;6.97;100.00;100589.13;4958776;29;20058;-93
2023/03/25 22:53:57;;;;;;;;;;;;;;;;;;;;;
2023/03/25 22:59:26;;;;;;;42.00;7.30;;;;;;;6.87;100.00;100586.78;4982893;28;20113;-93
2023/03/25 23:01:56;;;;;;;46.10;7.65;;;;;;;6.86;100.00;100590.50;4966831;28;20125;-93
2023/03/25 23:04:27;;;;;;;39.47;6.95;;;;;;;6.91;100.00;100606.09;4984443;28;20034;-93
2023/03/25 23:07:03;;;;;;;50.90;7.68;;;;;;;6.86;100.00;100598.59;4971274;28;20097;-92
2023/03/25 23:09:48;;;;;;;52.00;7.32;;;;;;;6.84;100.00;100587.19;5000763;28;20113;-93
2023/03/25 23:12:22;;;;;;;57.13;7.20;;;;;;;6.84;100.00;100597.97;4981125;28;20069;-93